createdAt,value
2022-09-20T00:01:32.198Z,1.20
2022-09-20T00:04:01.868Z,1.50
2022-09-20T00:06:36.259Z,1.45
2022-09-20T00:09:04.387Z,1.95
2022-09-20T00:11:33.406Z,2.25
2022-09-20T00:14:03.881Z,1.42
2022-09-20T00:16:39.514Z,1.35
2022-09-20T00:19:21.332Z,1.00
2022-09-20T00:21:52.780Z,1.35
2022-09-20T00:26:48.793Z,1.15
2022-09-20T00:29:18.512Z,1.35
2022-09-20T00:31:47.476Z,1.23
2022-09-20T00:34:23.255Z,0.90
2022-09-20T00:36:51.504Z,1.10
2022-09-20T00:39:18.323Z,1.35
2022-09-20T00:41:45.233Z,1.00
2022-09-20T00:44:45.875Z,1.08
2022-09-20T00:47:19.474Z,1.50
2022-09-20T00:49:52.344Z,1.50
2022-09-20T00:52:36.157Z,1.00
2022-09-20T00:55:07.054Z,1.90
2022-09-20T00:57:44.991Z,1.73
2022-09-20T01:00:24.873Z,1.20
2022-09-20T01:02:57.113Z,1.38
2022-09-20T01:05:28.499Z,1.20
2022-09-20T01:08:00.761Z,0.85
2022-09-20T01:10:31.521Z,1.00
2022-09-20T01:13:11.973Z,0.80
2022-09-20T01:15:45.377Z,1.50
2022-09-20T01:18:15.818Z,1.42
2022-09-20T01:20:49.114Z,1.60
2022-09-20T01:23:35.398Z,1.67
2022-09-20T01:26:55.475Z,1.27
2022-09-20T01:29:57.675Z,1.15
2022-09-20T01:32:34.710Z,0.90
2022-09-20T01:35:09.488Z,1.48
2022-09-20T01:38:01.644Z,1.17
2022-09-20T01:40:50.280Z,1.60
2022-09-20T01:43:28.346Z,1.58
2022-09-20T01:46:13.320Z,0.95
2022-09-20T01:48:42.462Z,1.48
2022-09-20T01:51:36.603Z,1.13
2022-09-20T01:54:39.794Z,0.65
2022-09-20T01:57:53.934Z,1.08
2022-09-20T02:00:23.981Z,1.05
2022-09-20T02:03:19.152Z,0.93
2022-09-20T02:06:19.138Z,1.20
2022-09-20T02:09:31.775Z,1.33
2022-09-20T02:12:38.596Z,1.10
2022-09-20T02:15:36.853Z,1.10
2022-09-20T02:18:36.157Z,1.50
2022-09-20T02:21:14.768Z,1.05
2022-09-20T02:24:00.806Z,1.65
2022-09-20T02:27:04.692Z,0.85
2022-09-20T02:30:09.305Z,0.73
2022-09-20T02:36:25.423Z,1.00
2022-09-20T02:39:07.009Z,0.98
2022-09-20T02:45:05.662Z,0.77
2022-09-20T02:47:43.514Z,0.85
2022-09-20T02:50:44.164Z,1.15
2022-09-20T02:53:35.428Z,0.90
2022-09-20T02:56:17.993Z,0.90
2022-09-20T02:59:43.136Z,0.73
2022-09-20T03:02:25.287Z,0.70
2022-09-20T03:05:14.820Z,0.85
2022-09-20T03:08:22.570Z,0.95
2022-09-20T03:11:39.063Z,0.77
2022-09-20T03:18:03.919Z,0.50
2022-09-20T03:20:56.582Z,1.20
2022-09-20T03:27:19.340Z,1.30
2022-09-20T03:30:12.344Z,0.63
2022-09-20T03:33:22.810Z,0.80
2022-09-20T03:36:18.010Z,1.15
2022-09-20T03:39:33.221Z,0.88
2022-09-20T03:45:47.159Z,1.05
2022-09-20T03:48:38.372Z,0.63
2022-09-20T03:51:25.174Z,0.90
2022-09-20T03:54:39.851Z,0.98
2022-09-20T03:57:44.480Z,0.73
2022-09-20T04:00:40.645Z,1.20
2022-09-20T04:03:48.144Z,0.75
2022-09-20T04:06:40.172Z,0.77
2022-09-20T04:09:39.464Z,1.15
2022-09-20T04:12:19.768Z,0.85
2022-09-20T04:14:58.910Z,0.77
2022-09-20T04:17:50.162Z,0.60
2022-09-20T04:20:25.550Z,1.20
2022-09-20T04:23:24.886Z,0.93
2022-09-20T04:26:03.163Z,0.98
2022-09-20T04:28:39.785Z,1.02
2022-09-20T04:34:22.722Z,0.98
2022-09-20T04:37:43.479Z,1.65
2022-09-20T04:40:36.882Z,0.90
2022-09-20T04:43:47.692Z,0.43
2022-09-20T04:46:56.610Z,0.68
2022-09-20T04:49:58.377Z,1.00
2022-09-20T04:53:06.490Z,0.90
2022-09-20T04:56:04.071Z,0.93
2022-09-20T04:59:04.236Z,1.58
2022-09-20T05:05:55.808Z,1.15
2022-09-20T05:09:09.806Z,1.15
2022-09-20T05:12:01.910Z,1.20
2022-09-20T05:15:31.021Z,1.17
2022-09-20T05:18:34.284Z,1.02
2022-09-20T05:21:33.094Z,1.10
2022-09-20T05:24:12.605Z,1.10
2022-09-20T05:27:33.963Z,1.10
2022-09-20T05:30:17.349Z,0.98
2022-09-20T05:33:03.948Z,1.20
2022-09-20T05:35:44.509Z,1.35
2022-09-20T05:38:23.386Z,1.33
2022-09-20T05:41:14.759Z,1.00
2022-09-20T05:44:04.112Z,2.42
2022-09-20T05:47:00.426Z,1.15
2022-09-20T05:49:55.373Z,1.13
2022-09-20T05:52:56.677Z,1.52
2022-09-20T05:56:08.159Z,0.85
2022-09-20T05:59:15.504Z,1.33
2022-09-20T06:02:00.672Z,1.40
2022-09-20T06:04:39.367Z,1.08
2022-09-20T06:07:27.376Z,1.13
2022-09-20T06:10:25.412Z,1.48
2022-09-20T06:13:04.591Z,1.25
2022-09-20T06:15:44.553Z,0.95
2022-09-20T06:18:42.324Z,0.90
2022-09-20T06:21:26.156Z,1.30
2022-09-20T06:24:07.907Z,1.20
2022-09-20T06:26:45.899Z,1.13
2022-09-20T06:29:32.265Z,1.13
2022-09-20T06:32:01.535Z,1.17
2022-09-20T06:34:38.325Z,1.10
2022-09-20T06:37:23.034Z,1.30
2022-09-20T06:40:04.704Z,1.23
2022-09-20T06:42:53.828Z,1.10
2022-09-20T06:45:20.585Z,1.13
2022-09-20T06:47:54.445Z,1.33
2022-09-20T06:50:33.943Z,1.30
2022-09-20T06:53:11.126Z,0.88
2022-09-20T06:55:56.159Z,1.42
2022-09-20T06:58:29.050Z,1.20
2022-09-20T07:03:55.873Z,0.93
2022-09-20T07:06:36.540Z,0.88
2022-09-20T07:09:05.033Z,0.83
2022-09-20T07:14:25.714Z,1.20
2022-09-20T07:17:01.451Z,0.98
2022-09-20T07:19:40.122Z,0.93
2022-09-20T07:22:23.041Z,1.00
2022-09-20T07:24:57.265Z,1.10
2022-09-20T07:27:31.647Z,0.95
2022-09-20T07:30:14.258Z,0.80
2022-09-20T07:32:51.373Z,1.30
2022-09-20T07:35:31.849Z,1.00
2022-09-20T07:38:13.968Z,1.73
2022-09-20T07:40:48.279Z,0.90
2022-09-20T07:43:27.280Z,1.33
2022-09-20T07:45:57.248Z,1.45
2022-09-20T07:48:29.717Z,1.30
2022-09-20T07:51:18.300Z,1.20
2022-09-20T07:53:47.788Z,1.40
2022-09-20T07:56:24.101Z,1.40
2022-09-20T07:58:53.796Z,1.00
2022-09-20T08:01:25.934Z,1.10
2022-09-20T08:04:06.921Z,0.93
2022-09-20T08:06:40.887Z,1.10
2022-09-20T08:15:19.011Z,0.88
2022-09-20T08:18:07.533Z,1.02
2022-09-20T08:20:42.374Z,0.90
2022-09-20T08:23:27.534Z,1.13
2022-09-20T08:26:11.375Z,0.85
2022-09-20T08:28:39.374Z,0.57
2022-09-20T08:31:20.567Z,1.05
2022-09-20T08:34:03.017Z,1.23
2022-09-20T08:36:36.718Z,0.73
2022-09-20T08:42:21.179Z,0.85
2022-09-20T08:45:00.831Z,0.90
2022-09-20T08:47:34.529Z,0.93
2022-09-20T08:50:20.539Z,1.13
2022-09-20T08:53:00.151Z,0.65
2022-09-20T08:55:39.818Z,1.00
2022-09-20T08:58:19.185Z,0.95
2022-09-20T09:01:04.534Z,0.65
2022-09-20T09:03:38.219Z,1.05
2022-09-20T09:06:27.297Z,0.70
2022-09-20T09:09:39.110Z,0.70
2022-09-20T09:12:26.132Z,0.43
2022-09-20T09:15:21.107Z,0.50
2022-09-20T09:18:31.709Z,0.57
2022-09-20T09:21:23.293Z,0.70
2022-09-20T09:24:09.675Z,0.60
2022-09-20T09:26:56.158Z,0.90
2022-09-20T09:29:45.277Z,1.05
2022-09-20T09:32:40.672Z,1.00
2022-09-20T09:35:31.110Z,0.80
2022-09-20T09:38:01.359Z,1.30
2022-09-20T09:41:04.745Z,0.80
2022-09-20T09:46:32.941Z,1.48
2022-09-20T09:49:32.294Z,1.05
2022-09-20T09:52:26.682Z,0.90
2022-09-20T09:55:04.612Z,0.75
2022-09-20T09:57:50.090Z,0.68
2022-09-20T10:03:46.432Z,1.00
2022-09-20T10:06:31.451Z,1.15
2022-09-20T10:09:24.316Z,0.65
2022-09-20T10:12:14.373Z,0.93
2022-09-20T10:15:18.696Z,0.70
2022-09-20T10:18:16.459Z,0.90
2022-09-20T10:21:04.400Z,0.75
2022-09-20T10:24:11.547Z,1.30
2022-09-20T10:27:18.956Z,0.98
2022-09-20T10:30:05.723Z,0.88
2022-09-20T10:33:02.573Z,1.13
2022-09-20T10:35:57.715Z,0.88
2022-09-20T10:38:42.260Z,0.90
2022-09-20T10:41:53.208Z,0.90
2022-09-20T10:44:55.091Z,1.20
2022-09-20T10:47:34.838Z,0.82
2022-09-20T10:51:24.641Z,1.17
2022-09-20T10:54:16.860Z,1.42
2022-09-20T10:57:08.829Z,1.00
2022-09-20T11:00:20.005Z,1.33
2022-09-20T11:06:45.818Z,0.85
2022-09-20T11:10:03.917Z,1.08
2022-09-20T11:12:54.794Z,1.08
2022-09-20T11:15:44.992Z,1.00
2022-09-20T11:21:29.553Z,0.80
2022-09-20T11:27:42.801Z,1.02
2022-09-20T11:30:27.511Z,1.02
2022-09-20T11:33:39.327Z,0.90
2022-09-20T11:36:43.869Z,0.80
2022-09-20T11:39:47.824Z,1.23
2022-09-20T11:42:35.994Z,1.17
2022-09-20T11:45:28.421Z,0.80
2022-09-20T11:48:36.798Z,0.68
2022-09-20T11:51:59.746Z,0.68
2022-09-20T11:55:26.765Z,0.90
2022-09-20T11:58:13.677Z,0.40
2022-09-20T12:04:31.305Z,0.70
2022-09-20T12:07:23.945Z,0.55
2022-09-20T12:10:01.457Z,0.60
2022-09-20T12:12:48.338Z,0.80
2022-09-20T12:15:58.178Z,0.70
2022-09-20T12:22:28.625Z,0.88
2022-09-20T12:25:32.342Z,0.68
2022-09-20T12:28:26.365Z,1.90
2022-09-20T12:34:41.232Z,0.85
2022-09-20T12:37:30.818Z,0.65
2022-09-20T12:43:27.122Z,0.85
2022-09-20T12:46:28.747Z,0.80
2022-09-20T12:51:55.168Z,0.90
2022-09-20T12:57:28.711Z,0.68
2022-09-20T13:00:40.604Z,0.50
2022-09-20T13:03:57.853Z,0.90
2022-09-20T13:06:41.157Z,0.57
2022-09-20T13:09:52.457Z,0.60
2022-09-20T13:12:54.428Z,0.75
2022-09-20T13:15:27.527Z,0.73
2022-09-20T13:18:15.395Z,0.70
2022-09-20T13:20:52.495Z,0.80
2022-09-20T13:23:27.577Z,0.68
2022-09-20T13:26:09.677Z,0.70
2022-09-20T13:28:57.438Z,0.70
2022-09-20T13:31:42.382Z,0.88
2022-09-20T13:34:56.430Z,0.50
2022-09-20T13:38:01.932Z,0.75
2022-09-20T13:40:35.541Z,0.50
2022-09-20T13:43:24.116Z,0.60
2022-09-20T13:46:22.232Z,0.50
2022-09-20T13:52:41.071Z,0.75
2022-09-20T13:55:30.258Z,0.80
2022-09-20T14:04:10.491Z,0.90
2022-09-20T14:10:29.368Z,1.00
2022-09-20T14:13:22.620Z,0.90
2022-09-20T14:25:24.426Z,0.63
2022-09-20T14:31:40.793Z,0.82
2022-09-20T14:35:00.430Z,0.82
2022-09-20T14:38:04.432Z,1.08
2022-09-20T14:54:18.089Z,0.80
2022-09-20T14:57:07.132Z,1.00
2022-09-20T15:03:25.524Z,0.90
2022-09-20T15:06:54.767Z,0.70
2022-09-20T15:12:45.718Z,1.38
2022-09-20T15:15:19.213Z,1.13
2022-09-20T15:17:56.219Z,1.15
2022-09-20T15:20:34.864Z,1.30
2022-09-20T15:23:04.464Z,1.20
2022-09-20T15:25:38.785Z,1.05
2022-09-20T15:31:17.328Z,1.05
2022-09-20T15:39:15.356Z,0.80
2022-09-20T15:41:47.269Z,1.00
2022-09-20T15:44:24.892Z,0.85
2022-09-20T15:46:59.213Z,1.25
2022-09-20T15:50:04.566Z,1.05
2022-09-20T15:52:48.887Z,1.02
2022-09-20T15:55:20.164Z,1.40
2022-09-20T15:57:47.474Z,1.15
2022-09-20T16:00:18.512Z,0.90
2022-09-20T16:02:57.318Z,0.68
2022-09-20T16:05:48.847Z,0.82
2022-09-20T16:31:08.765Z,1.02
2022-09-20T16:33:52.386Z,0.88
2022-09-20T16:39:47.437Z,2.17
2022-09-20T16:42:21.890Z,1.10
2022-09-20T16:45:02.141Z,0.77
2022-09-20T16:47:41.773Z,0.70
2022-09-20T16:51:02.934Z,0.50
2022-09-20T16:56:49.391Z,0.80
2022-09-20T17:06:26.369Z,1.55
2022-09-20T17:19:46.352Z,1.17
2022-09-20T17:22:54.695Z,0.90
2022-09-20T17:26:10.197Z,0.60
2022-09-20T17:28:47.717Z,0.85
2022-09-20T17:31:48.734Z,1.10
2022-09-20T17:34:37.690Z,0.80
2022-09-20T17:37:09.341Z,0.60
2022-09-20T17:39:45.947Z,1.25
2022-09-20T17:42:17.794Z,1.02
2022-09-20T17:44:46.629Z,0.90
2022-09-20T17:47:15.618Z,0.60
2022-09-20T17:49:46.760Z,0.93
2022-09-20T17:52:24.393Z,0.80
2022-09-20T17:54:53.991Z,0.98
2022-09-20T17:57:25.946Z,1.23
2022-09-20T17:59:52.781Z,1.30
2022-09-20T18:02:22.599Z,1.50
2022-09-20T18:04:49.773Z,2.13
2022-09-20T18:07:18.267Z,2.67
2022-09-20T18:10:10.928Z,2.67
2022-09-20T18:12:53.972Z,3.78
2022-09-20T18:15:28.419Z,3.50
2022-09-20T18:17:55.665Z,3.05
2022-09-20T18:20:22.771Z,2.30
2022-09-20T18:22:51.151Z,2.30
2022-09-20T18:25:18.219Z,2.22
2022-09-20T18:27:50.321Z,2.80
2022-09-20T18:30:31.880Z,2.55
2022-09-20T18:35:34.253Z,2.27
2022-09-20T18:40:54.326Z,2.00
2022-09-20T18:43:41.277Z,1.63
2022-09-20T18:46:08.329Z,2.67
2022-09-20T18:49:06.330Z,1.95
2022-09-20T18:54:28.027Z,1.85
2022-09-20T18:57:50.084Z,2.47
2022-09-20T19:13:46.604Z,2.60
2022-09-20T19:16:52.807Z,1.95
2022-09-20T19:30:27.106Z,2.90
2022-09-20T19:36:54.208Z,2.60
2022-09-20T19:40:31.387Z,3.33
2022-09-20T19:47:13.902Z,4.13
2022-09-20T19:56:35.877Z,4.07
2022-09-20T19:59:16.172Z,4.15
2022-09-20T20:02:14.292Z,4.03
2022-09-20T20:09:13.736Z,4.47
2022-09-20T20:12:14.873Z,3.50
2022-09-20T20:21:37.406Z,3.67
2022-09-20T20:44:47.451Z,3.45
2022-09-20T20:51:31.187Z,3.75
2022-09-20T20:54:32.213Z,3.70
2022-09-20T20:57:32.261Z,3.33
2022-09-20T21:00:57.164Z,3.78
2022-09-20T21:10:41.082Z,3.58
2022-09-20T21:14:23.515Z,3.53
2022-09-20T21:28:01.390Z,3.95
2022-09-20T21:37:41.965Z,4.50
2022-09-20T21:47:31.985Z,3.95
2022-09-20T21:50:35.635Z,3.70
2022-09-20T22:00:48.048Z,4.20
2022-09-20T22:03:33.014Z,3.70
2022-09-20T22:16:04.081Z,3.47
2022-09-20T22:24:05.812Z,4.43
2022-09-20T22:32:51.898Z,3.92
2022-09-20T22:36:29.424Z,3.53
2022-09-20T22:39:36.339Z,3.95
2022-09-20T22:42:22.254Z,3.45
2022-09-20T22:45:51.463Z,3.25
2022-09-20T22:55:25.464Z,3.42
2022-09-20T23:25:41.191Z,2.83
2022-09-20T23:31:47.449Z,2.72
2022-09-20T23:37:44.522Z,2.55
2022-09-20T23:43:47.556Z,2.90
2022-09-20T23:56:35.721Z,2.83
